Flugplatz Leer-Papenburg

EDWF · 下萨克森, 德国

罗盘
风向 的 风向 240° Leer-Papenburg Airport 8/26
风: 17 kt, 5 beaufort

16 kt

6 kt
改变
0 ft 1.000 2.000 3.000 4.000 5.000
Cloud Cloud Cloud Cloud Cloud Cloud Cloud Cloud
OVC 1.100
METAR EDDW 292220Z AUTO 24017KT 4400 -RADZ BR OVC011 03/02 Q1014 TEMPO 25020G30KT DZ BKN009

METAR Leer-Papenburg Airport - EDWF

Leer-Papenburg Airport是,德国中的小机场。 该机场有一条跑道: 8/26. 该领域的国际民航组织标志是EDWF.

这份报告是针对2023年1月29日 23:20, 当地时间在Bremen Airport进行的。

机场观察

风向为240°,速度为17 kt。

可见度为4,4 km。

有乌云密布在1.100 ft的高度。 破损或更高的上限为1.100 ft。

当前天气为光 雨 细雨, 薄雾。 温度为3 °C,阵风为-5 °C。 露点为2 °C,相对湿度为93%。 海平面上的气压为1014 hPa (QNH)。

发展趋势

  • 暂时的

    风来自250°方向,速度为20 kt。 预计30 kt阵风。 重大天气:细雨。 碎云在900 ft的高度.

白天

今天,太阳从08:19升起,在17:07降落。 这适用于Leer-Papenburg Airport,世界夏令时可能有所不同。 当地时间与世界标准时间之间的时差为+1 小时。 当前,没有夏令时有效。

公司介绍

我们没有关于这个机场的公司信息。

体会

到Vliegles.nl去找飞行课程,跳伞和其他飞行体验。 浏览页面,了解Leer-Papenburg Airport附近所有可用的活动。 你也可以使用搜索功能来寻找你所在地附近的特定飞行课程、跳伞或其他飞行体验。

跑道

Id 标题 侧风 逆风 侧风 %
8/26 079°-259° 6 kt 16 kt 33 %

逆风成分最大的方向会被突出显示,并用于横风计算。 这并不一定意味着这个方向在使用。

乌云

1.100 ft OVC 乌云密布
900 ft BKN 暂时的 碎云

温度 & 天气

天气 光 雨 细雨
薄雾
温度 3 °C
露点 2 °C
相对湿度 93%
风寒 -5 °C
Kp-index 0 (0-9)

白天

日出
08:13 (8:18)
中午
12:37
日落
17:02

小工具

你想在你的网站上有一个关于Leer-Papenburg Airport的当前航空天气(METAR)的小部件吗?

显示HTML代码

我们和第三方通过cookies跟踪您在我们网站上的互联网行为。如果你继续,我们认为你同意我们的饼干政策